Time;durP1;ratioP1;P1;durP2;ratioP2;P2;SDS_P1;SDS_P2;PMS_P1;PMS_P2;Temp;Humidity;BMP_temperature;BMP_pressure;BME280_temperature;BME280_humidity;BME280_pressure;Samples;Min_cycle;Max_cycle;Signal;HPM_P1;HPM_P2
2020/12/29 00:00:52;;;;;;;;;;;;;;;-1.63;100.00;89707.81;1061272;56;20713;-82
2020/12/29 00:01:53;;;;;;;;;;;;;;;-1.67;100.00;89714.31;1061664;56;20161;-84
2020/12/29 00:02:53;;;;;;;;;;;;;;;-1.63;100.00;89709.69;1063593;56;20153;-83
2020/12/29 00:03:54;;;;;;;;;;;;;;;-1.62;100.00;89705.94;1065540;55;20162;-82
2020/12/29 00:04:57;;;;;;;;;;;;;;;-1.64;100.00;89697.75;1063681;55;20182;-83
2020/12/29 00:06:02;;;;;;;;;;;;;;;-1.64;100.00;89706.34;1063387;56;20272;-81
2020/12/29 00:07:05;;;;;;;;;;;;;;;-1.66;100.00;89705.31;1063909;55;20192;-82
2020/12/29 00:08:06;;;;;;;;;;;;;;;-1.66;100.00;89707.94;1061708;56;20689;-85
2020/12/29 00:09:07;;;;;;;;;;;;;;;-1.67;100.00;89717.66;1061828;56;20194;-82
2020/12/29 00:10:08;;;;;;;;;;;;;;;-1.61;100.00;89715.25;1066082;55;20161;-82
2020/12/29 00:11:08;;;;;;;;;;;;;;;-1.64;100.00;89716.81;1063922;55;20654;-82
2020/12/29 00:12:09;;;;;;;;;;;;;;;-1.54;100.00;89726.25;1061821;56;20181;-81
2020/12/29 00:13:12;;;;;;;;;;;;;;;-1.63;100.00;89713.03;1063888;55;20634;-82
2020/12/29 00:14:13;;;;;;;;;;;;;;;-1.58;100.00;89717.75;1061914;56;20240;-82
2020/12/29 00:15:14;;;;;;;;;;;;;;;-1.59;100.00;89711.03;1061686;56;20173;-82
2020/12/29 00:16:14;;;;;;;;;;;;;;;-1.55;100.00;89708.31;1061582;56;20178;-81
2020/12/29 00:17:15;;;;;;;;;;;;;;;-1.61;100.00;89707.41;1063696;55;20582;-82
2020/12/29 00:18:15;;;;;;;;;;;;;;;-1.62;100.00;89698.09;1065924;55;20158;-83
2020/12/29 00:19:21;;;;;;;;;;;;;;;-1.63;100.00;89702.56;1063865;55;20173;-83
2020/12/29 00:20:21;;;;;;;;;;;;;;;-1.66;100.00;89705.31;1061991;56;20652;-83
2020/12/29 00:21:22;;;;;;;;;;;;;;;-1.62;100.00;89709.28;1061650;56;20181;-81
2020/12/29 00:22:23;;;;;;;;;;;;;;;-1.62;100.00;89703.31;1063764;55;20222;-82
2020/12/29 00:23:24;;;;;;;;;;;;;;;-1.60;100.00;89703.63;1065924;55;20193;-82
2020/12/29 00:24:24;;;;;;;;;;;;;;;-1.65;100.00;89709.41;1063445;55;20196;-83
2020/12/29 00:25:25;;;;;;;;;;;;;;;-1.60;100.00;89701.72;1063487;55;20653;-82
2020/12/29 00:26:26;;;;;;;;;;;;;;;-1.64;100.00;89701.09;1063407;55;20594;-82
2020/12/29 00:27:26;;;;;;;;;;;;;;;-1.65;100.00;89707.50;1063591;55;20188;-83
2020/12/29 00:28:27;;;;;;;;;;;;;;;-1.63;100.00;89723.50;1061450;56;20185;-82
2020/12/29 00:29:27;;;;;;;;;;;;;;;-1.58;100.00;89711.78;1061780;56;20185;-83
2020/12/29 00:30:28;;;;;;;;;;;;;;;-1.67;100.00;89711.69;1063829;55;20181;-84
2020/12/29 00:31:28;;;;;;;;;;;;;;;-1.52;100.00;89713.44;1061838;55;20165;-82
2020/12/29 00:32:29;;;;;;;;;;;;;;;-1.51;100.00;89727.25;1061774;56;20639;-82
2020/12/29 00:33:29;;;;;;;;;;;;;;;-1.52;100.00;89723.19;1063918;55;20170;-82
2020/12/29 00:34:30;;;;;;;;;;;;;;;-1.55;100.00;89719.50;1063943;55;20235;-83
2020/12/29 00:35:30;;;;;;;;;;;;;;;-1.59;100.00;89718.16;1059567;56;20588;-83
2020/12/29 00:36:31;;;;;;;;;;;;;;;-1.57;100.00;89716.59;1061628;56;20223;-83
2020/12/29 00:37:31;;;;;;;;;;;;;;;-1.57;100.00;89727.06;1065893;55;20578;-83
2020/12/29 00:38:32;;;;;;;;;;;;;;;-1.53;100.00;89721.72;1063716;55;20173;-84
2020/12/29 00:39:32;;;;;;;;;;;;;;;-1.53;100.00;89725.06;1063916;55;20598;-82
2020/12/29 00:40:33;;;;;;;;;;;;;;;-1.49;100.00;89722.34;1066053;55;20266;-83
2020/12/29 00:41:33;;;;;;;;;;;;;;;-1.54;100.00;89730.72;1063652;55;20209;-84
2020/12/29 00:42:34;;;;;;;;;;;;;;;-1.58;100.00;89733.47;1063840;55;20181;-82
2020/12/29 00:43:35;;;;;;;;;;;;;;;-1.45;100.00;89730.78;1066083;55;20568;-83
2020/12/29 00:44:35;;;;;;;;;;;;;;;-1.43;100.00;89725.88;1068518;55;20184;-82
2020/12/29 00:45:36;;;;;;;;;;;;;;;-1.43;100.00;89735.63;1068606;55;20145;-83
2020/12/29 00:46:36;;;;;;;;;;;;;;;-1.43;100.00;89730.38;1063578;56;20204;-83
2020/12/29 00:47:36;;;;;;;;;;;;;;;-1.49;100.00;89737.31;1062766;55;20182;-82
2020/12/29 00:48:37;;;;;;;;;;;;;;;-1.46;100.00;89736.47;1063859;55;21162;-83
2020/12/29 00:49:38;;;;;;;;;;;;;;;-1.55;100.00;89740.47;1063976;55;20166;-83
2020/12/29 00:50:39;;;;;;;;;;;;;;;-1.50;100.00;89743.69;1065982;55;20673;-83
2020/12/29 00:51:39;;;;;;;;;;;;;;;-1.45;100.00;89736.03;1066159;55;20196;-82
2020/12/29 00:52:40;;;;;;;;;;;;;;;-1.36;100.00;89738.00;1066015;55;20150;-83
2020/12/29 00:53:40;;;;;;;;;;;;;;;-1.39;100.00;89739.59;1064014;55;20157;-84
2020/12/29 00:54:41;;;;;;;;;;;;;;;-1.38;100.00;89748.91;1063784;55;20177;-82
2020/12/29 00:55:41;;;;;;;;;;;;;;;-1.33;100.00;89743.13;1065964;55;20950;-82
2020/12/29 00:56:42;;;;;;;;;;;;;;;-1.36;100.00;89745.84;1066068;55;20169;-83
2020/12/29 00:57:43;;;;;;;;;;;;;;;-1.33;100.00;89737.88;1066156;55;20258;-82
2020/12/29 00:58:43;;;;;;;;;;;;;;;-1.31;100.00;89746.06;1068514;55;20169;-81
2020/12/29 00:59:43;;;;;;;;;;;;;;;-1.28;100.00;89734.00;1065972;55;20285;-82
2020/12/29 01:00:44;;;;;;;;;;;;;;;-1.24;100.00;89739.84;1066038;55;20201;-84
2020/12/29 01:01:44;;;;;;;;;;;;;;;-1.28;100.00;89728.75;1063739;55;20170;-81
2020/12/29 01:02:45;;;;;;;;;;;;;;;-1.34;100.00;89741.66;1061675;56;20185;-84
2020/12/29 01:03:46;;;;;;;;;;;;;;;-1.22;100.00;89745.41;1063768;55;20150;-82
2020/12/29 01:04:46;;;;;;;;;;;;;;;-1.22;100.00;89744.69;1063920;55;20273;-85
2020/12/29 01:05:47;;;;;;;;;;;;;;;-1.25;100.00;89730.53;1061670;56;20178;-83
2020/12/29 01:06:47;;;;;;;;;;;;;;;-1.32;100.00;89747.22;1061869;56;20674;-83
2020/12/29 01:07:48;;;;;;;;;;;;;;;-1.25;100.00;89745.53;1063793;55;20258;-83
2020/12/29 01:08:48;;;;;;;;;;;;;;;-1.23;100.00;89733.44;1066131;55;20185;-84
2020/12/29 01:09:49;;;;;;;;;;;;;;;-1.26;100.00;89736.94;1063979;55;20193;-82
2020/12/29 01:10:53;;;;;;;;;;;;;;;-1.21;100.00;89736.38;1063929;55;20161;-83
2020/12/29 01:11:54;;;;;;;;;;;;;;;-1.18;100.00;89721.72;1068425;55;20566;-82
2020/12/29 01:12:55;;;;;;;;;;;;;;;-1.07;100.00;89719.44;1065934;55;20925;-83
2020/12/29 01:13:56;;;;;;;;;;;;;;;-1.14;100.00;89722.31;1063659;55;20247;-85
2020/12/29 01:14:56;;;;;;;;;;;;;;;-1.11;100.00;89722.19;1066156;55;20216;-83
2020/12/29 01:15:57;;;;;;;;;;;;;;;-1.06;100.00;89715.66;1068685;55;20164;-83
2020/12/29 01:16:57;;;;;;;;;;;;;;;-1.03;100.00;89714.81;1066039;55;20172;-83
2020/12/29 01:17:58;;;;;;;;;;;;;;;-1.04;99.87;89714.09;1063728;55;20188;-82
2020/12/29 01:18:58;;;;;;;;;;;;;;;-1.00;99.74;89723.75;1065852;55;20150;-83
2020/12/29 01:19:59;;;;;;;;;;;;;;;-0.96;99.53;89721.72;1066136;55;20164;-84
2020/12/29 01:20:59;;;;;;;;;;;;;;;-0.87;98.31;89727.03;1064006;55;20192;-82
2020/12/29 01:22:00;;;;;;;;;;;;;;;-0.82;98.39;89731.72;1063893;55;20166;-84
2020/12/29 01:23:00;;;;;;;;;;;;;;;-0.69;97.59;89735.00;1061639;56;20154;-84
2020/12/29 01:24:01;;;;;;;;;;;;;;;-0.70;97.34;89740.66;1063915;55;20181;-83
2020/12/29 01:25:02;;;;;;;;;;;;;;;-0.78;97.58;89746.16;1061763;56;20147;-82
2020/12/29 01:26:04;;;;;;;;;;;;;;;-0.69;98.22;89748.09;1061621;56;20630;-83
2020/12/29 01:27:05;;;;;;;;;;;;;;;-0.63;97.07;89756.16;1061623;56;20240;-83
2020/12/29 01:28:05;;;;;;;;;;;;;;;-0.66;97.31;89765.63;1059495;56;20679;-83
2020/12/29 01:29:05;;;;;;;;;;;;;;;-0.64;97.52;89752.06;1063724;55;20173;-83
2020/12/29 01:30:06;;;;;;;;;;;;;;;-0.64;97.61;89757.31;1063737;55;20158;-82
2020/12/29 01:31:06;;;;;;;;;;;;;;;-0.63;98.53;89767.38;1061712;56;20349;-84
2020/12/29 01:32:07;;;;;;;;;;;;;;;-0.66;98.82;89757.75;1063916;55;20195;-82
2020/12/29 01:33:07;;;;;;;;;;;;;;;-0.61;99.32;89774.81;1063909;55;20197;-82
2020/12/29 01:34:08;;;;;;;;;;;;;;;-0.66;100.00;89762.25;1061609;56;20666;-82
2020/12/29 01:35:08;;;;;;;;;;;;;;;-0.68;99.72;89767.91;1061763;56;20603;-83
2020/12/29 01:36:09;;;;;;;;;;;;;;;-0.70;100.00;89761.62;1061849;56;20181;-84
2020/12/29 01:37:09;;;;;;;;;;;;;;;-0.70;100.00;89765.00;1066238;55;20158;-82
2020/12/29 01:38:10;;;;;;;;;;;;;;;-0.72;100.00;89761.34;1061825;56;20150;-84
2020/12/29 01:39:10;;;;;;;;;;;;;;;-0.69;100.00;89763.13;1057502;56;20775;-83
2020/12/29 01:40:12;;;;;;;;;;;;;;;-0.67;100.00;89752.91;1057501;56;20174;-82
2020/12/29 01:41:12;;;;;;;;;;;;;;;-0.65;100.00;89748.72;1061751;55;20230;-83
2020/12/29 01:42:13;;;;;;;;;;;;;;;-0.66;100.00;89757.75;1061524;56;20176;-83
2020/12/29 01:43:13;;;;;;;;;;;;;;;-0.70;100.00;89754.53;1059505;56;20591;-82
2020/12/29 01:44:15;;;;;;;;;;;;;;;-0.70;100.00;89754.53;1063927;55;20169;-83
2020/12/29 01:45:16;;;;;;;;;;;;;;;-0.64;100.00;89767.81;1066222;55;20289;-84
2020/12/29 01:46:17;;;;;;;;;;;;;;;-0.65;100.00;89758.47;1063930;55;20187;-85
2020/12/29 01:47:20;;;;;;;;;;;;;;;-0.58;100.00;89771.31;1065960;55;20222;-84
2020/12/29 01:48:20;;;;;;;;;;;;;;;-0.63;100.00;89766.63;1066224;55;20177;-83
2020/12/29 01:49:21;;;;;;;;;;;;;;;-0.70;100.00;89770.25;1063942;55;20184;-83
2020/12/29 01:50:22;;;;;;;;;;;;;;;-0.56;100.00;89771.66;1063842;55;20165;-83
2020/12/29 01:51:23;;;;;;;;;;;;;;;-0.65;100.00;89787.31;1063892;55;20165;-84
2020/12/29 01:52:24;;;;;;;;;;;;;;;-0.63;100.00;89795.50;1064000;55;20157;-83
2020/12/29 01:53:24;;;;;;;;;;;;;;;-0.65;100.00;89790.69;1063860;55;20173;-84
2020/12/29 01:54:25;;;;;;;;;;;;;;;-0.51;100.00;89789.44;1065866;55;20169;-83
2020/12/29 01:55:26;;;;;;;;;;;;;;;-0.58;100.00;89785.16;1065946;55;20168;-83
2020/12/29 01:56:27;;;;;;;;;;;;;;;-0.54;100.00;89798.16;1063900;55;20274;-82
2020/12/29 01:57:27;;;;;;;;;;;;;;;-0.59;100.00;89780.34;1066054;55;20665;-82
2020/12/29 01:58:28;;;;;;;;;;;;;;;-0.62;100.00;89789.81;1068573;55;20145;-82
2020/12/29 01:59:28;;;;;;;;;;;;;;;-0.55;100.00;89794.09;1068427;55;20617;-83
2020/12/29 02:00:29;;;;;;;;;;;;;;;-0.50;100.00;89790.91;1063860;55;20149;-82
2020/12/29 02:01:30;;;;;;;;;;;;;;;-0.57;100.00;89791.91;1064074;55;20677;-84
2020/12/29 02:02:31;;;;;;;;;;;;;;;-0.61;100.00;89801.78;1068576;55;20160;-82
2020/12/29 02:03:32;;;;;;;;;;;;;;;-0.63;100.00;89798.09;1065944;55;20634;-82
2020/12/29 02:04:32;;;;;;;;;;;;;;;-0.64;100.00;89791.41;1063812;55;20153;-83
2020/12/29 02:05:33;;;;;;;;;;;;;;;-0.57;100.00;89791.16;1063771;55;20180;-81
2020/12/29 02:06:34;;;;;;;;;;;;;;;-0.56;100.00;89782.13;1061637;56;20177;-84
2020/12/29 02:07:35;;;;;;;;;;;;;;;-0.64;100.00;89773.78;1063815;55;20169;-82
2020/12/29 02:08:35;;;;;;;;;;;;;;;-0.61;100.00;89775.56;1061576;56;20691;-83
2020/12/29 02:09:36;;;;;;;;;;;;;;;-0.64;100.00;89786.16;1065962;55;20187;-84
2020/12/29 02:10:37;;;;;;;;;;;;;;;-0.68;100.00;89767.91;1068555;55;20649;-82
2020/12/29 02:11:37;;;;;;;;;;;;;;;-0.64;100.00;89781.66;1068586;55;20176;-83
2020/12/29 02:12:38;;;;;;;;;;;;;;;-0.69;100.00;89776.22;1068565;55;20237;-81
2020/12/29 02:13:39;;;;;;;;;;;;;;;-0.72;100.00;89779.69;1066140;55;20150;-83
2020/12/29 02:14:40;;;;;;;;;;;;;;;-0.72;100.00;89777.06;1063889;55;20181;-82
2020/12/29 02:15:42;;;;;;;;;;;;;;;-0.67;100.00;89784.38;1063833;55;20580;-83
2020/12/29 02:16:43;;;;;;;;;;;;;;;-0.72;100.00;89787.56;1063829;55;20283;-83
2020/12/29 02:17:44;;;;;;;;;;;;;;;-0.64;100.00;89788.78;1065960;55;20286;-83
2020/12/29 02:18:44;;;;;;;;;;;;;;;-0.55;100.00;89794.09;1066161;55;20181;-83
2020/12/29 02:19:45;;;;;;;;;;;;;;;-0.53;100.00;89803.00;1063653;55;20194;-84
2020/12/29 02:20:45;;;;;;;;;;;;;;;-0.56;100.00;89801.22;1063709;55;20615;-83
2020/12/29 02:21:48;;;;;;;;;;;;;;;-0.58;100.00;89811.41;1066108;55;20169;-82
2020/12/29 02:22:49;;;;;;;;;;;;;;;-0.62;100.00;89816.03;1066054;55;20193;-84
2020/12/29 02:23:49;;;;;;;;;;;;;;;-0.59;100.00;89824.94;1063877;55;21082;-84
2020/12/29 02:24:56;;;;;;;;;;;;;;;-0.61;100.00;89819.41;1063919;55;20180;-82
2020/12/29 02:25:57;;;;;;;;;;;;;;;-0.65;100.00;89827.38;1064045;55;20307;-84
2020/12/29 02:26:57;;;;;;;;;;;;;;;-0.63;100.00;89824.34;1063780;55;20220;-82
2020/12/29 02:27:57;;;;;;;;;;;;;;;-0.57;100.00;89820.75;1063855;55;20172;-82
2020/12/29 02:28:59;;;;;;;;;;;;;;;-0.61;100.00;89822.75;1063890;55;20178;-83
2020/12/29 02:30:00;;;;;;;;;;;;;;;-0.60;100.00;89818.25;1063880;55;20158;-83
2020/12/29 02:31:01;;;;;;;;;;;;;;;-0.63;100.00;89825.06;1063947;55;20177;-84
2020/12/29 02:32:04;;;;;;;;;;;;;;;-0.60;100.00;89820.88;1061578;56;20643;-83
2020/12/29 02:33:04;;;;;;;;;;;;;;;-0.59;100.00;89814.47;1063985;55;20192;-83
2020/12/29 02:34:05;;;;;;;;;;;;;;;-0.54;100.00;89816.53;1068281;55;20161;-83
2020/12/29 02:35:07;;;;;;;;;;;;;;;-0.58;100.00;89818.53;1065942;55;20162;-82
2020/12/29 02:36:10;;;;;;;;;;;;;;;-0.57;100.00;89823.38;1063856;55;20633;-83
2020/12/29 02:37:11;;;;;;;;;;;;;;;-0.51;100.00;89821.66;1063764;55;20645;-82
2020/12/29 02:38:11;;;;;;;;;;;;;;;-0.58;100.00;89824.50;1065907;55;20161;-84
2020/12/29 02:39:12;;;;;;;;;;;;;;;-0.53;100.00;89828.47;1067989;55;20149;-83
2020/12/29 02:40:12;;;;;;;;;;;;;;;-0.48;100.00;89821.94;1065968;55;20169;-82
2020/12/29 02:41:13;;;;;;;;;;;;;;;-0.49;100.00;89825.72;1063652;55;21218;-83
2020/12/29 02:42:13;;;;;;;;;;;;;;;-0.48;100.00;89827.94;1063695;55;20287;-81
2020/12/29 02:43:14;;;;;;;;;;;;;;;-0.52;100.00;89830.69;1065820;55;20157;-82
2020/12/29 02:44:18;;;;;;;;;;;;;;;-0.52;100.00;89835.22;1063714;55;20714;-82
2020/12/29 02:45:18;;;;;;;;;;;;;;;-0.47;100.00;89831.31;1066025;55;20191;-82
2020/12/29 02:46:19;;;;;;;;;;;;;;;-0.57;100.00;89827.88;1063761;55;20614;-82
2020/12/29 02:47:19;;;;;;;;;;;;;;;-0.57;100.00;89835.72;1061511;56;20595;-82
2020/12/29 02:48:20;;;;;;;;;;;;;;;-0.59;100.00;89841.41;1063734;55;20560;-83
2020/12/29 02:49:20;;;;;;;;;;;;;;;-0.63;100.00;89835.56;1063879;55;20150;-81
2020/12/29 02:50:21;;;;;;;;;;;;;;;-0.57;100.00;89835.72;1063951;55;20180;-84
2020/12/29 02:51:21;;;;;;;;;;;;;;;-0.59;100.00;89833.53;1063900;55;20270;-82
2020/12/29 02:52:22;;;;;;;;;;;;;;;-0.58;100.00;89834.28;1061591;56;20634;-83
2020/12/29 02:53:22;;;;;;;;;;;;;;;-0.60;100.00;89826.13;1061622;56;20635;-83
2020/12/29 02:54:24;;;;;;;;;;;;;;;-0.64;100.00;89828.84;1063812;55;20655;-83
2020/12/29 02:55:24;;;;;;;;;;;;;;;-0.60;100.00;89829.47;1066209;55;20153;-82
2020/12/29 02:56:25;;;;;;;;;;;;;;;-0.57;100.00;89831.25;1066058;55;20161;-83
2020/12/29 02:57:25;;;;;;;;;;;;;;;-0.58;100.00;89829.03;1063775;55;20154;-82
2020/12/29 02:58:26;;;;;;;;;;;;;;;-0.63;99.82;89835.56;1061608;56;20159;-83
2020/12/29 02:59:26;;;;;;;;;;;;;;;-0.60;100.00;89850.44;1063730;55;20311;-83
2020/12/29 03:00:26;;;;;;;;;;;;;;;-0.56;99.44;89832.69;1066283;55;20188;-83
2020/12/29 03:01:27;;;;;;;;;;;;;;;-0.63;99.32;89846.03;1066369;55;20590;-82
2020/12/29 03:02:28;;;;;;;;;;;;;;;-0.58;99.42;89836.91;1065959;55;20184;-83
2020/12/29 03:03:28;;;;;;;;;;;;;;;-0.56;99.91;89856.31;1066111;55;20689;-83
2020/12/29 03:04:29;;;;;;;;;;;;;;;-0.64;100.00;89852.44;1061599;56;20186;-83
2020/12/29 03:05:29;;;;;;;;;;;;;;;-0.61;99.65;89856.13;1059319;56;20655;-83
2020/12/29 03:06:30;;;;;;;;;;;;;;;-0.59;100.00;89862.41;1061515;56;20166;-83
2020/12/29 03:07:30;;;;;;;;;;;;;;;-0.55;99.30;89870.87;1063896;55;20153;-82
2020/12/29 03:08:31;;;;;;;;;;;;;;;-0.58;99.77;89890.09;1063681;55;20176;-83
2020/12/29 03:09:32;;;;;;;;;;;;;;;-0.54;98.58;89877.59;1065888;55;20297;-83
2020/12/29 03:10:33;;;;;;;;;;;;;;;-0.59;98.48;89880.03;1065883;55;20243;-82
2020/12/29 03:11:33;;;;;;;;;;;;;;;-0.60;98.50;89878.56;1065966;55;20146;-83
2020/12/29 03:12:39;;;;;;;;;;;;;;;-0.64;98.55;89883.91;1063636;55;20249;-82
2020/12/29 03:13:39;;;;;;;;;;;;;;;-0.54;97.74;89877.59;1064025;55;20185;-85
2020/12/29 03:14:39;;;;;;;;;;;;;;;-0.52;97.02;89883.16;1063871;55;20154;-84
2020/12/29 03:15:40;;;;;;;;;;;;;;;-0.48;96.99;89887.53;1061544;56;20216;-84
2020/12/29 03:16:40;;;;;;;;;;;;;;;-0.50;96.81;89880.09;1061625;56;20245;-82
2020/12/29 03:17:42;;;;;;;;;;;;;;;-0.51;97.33;89884.63;1061716;56;20618;-82
2020/12/29 03:18:42;;;;;;;;;;;;;;;-0.51;97.07;89886.50;1066034;55;20165;-84
2020/12/29 03:19:43;;;;;;;;;;;;;;;-0.54;97.42;89882.09;1066084;55;20184;-81
2020/12/29 03:20:43;;;;;;;;;;;;;;;-0.54;97.51;89874.97;1066072;55;20166;-84
2020/12/29 03:21:44;;;;;;;;;;;;;;;-0.49;97.93;89873.69;1066160;55;20181;-84
2020/12/29 03:22:44;;;;;;;;;;;;;;;-0.56;97.80;89866.06;1063810;55;20635;-82
2020/12/29 03:23:45;;;;;;;;;;;;;;;-0.53;97.44;89855.47;1066358;55;20173;-82
2020/12/29 03:24:45;;;;;;;;;;;;;;;-0.43;97.26;89866.03;1066235;55;20172;-83
2020/12/29 03:25:46;;;;;;;;;;;;;;;-0.45;96.99;89860.44;1065879;55;20165;-82
2020/12/29 03:26:46;;;;;;;;;;;;;;;-0.50;96.39;89866.97;1063747;56;21161;-82
2020/12/29 03:27:47;;;;;;;;;;;;;;;-0.40;96.51;89867.78;1059827;56;20619;-82
2020/12/29 03:28:47;;;;;;;;;;;;;;;-0.42;95.86;89877.97;1063753;56;20161;-82
2020/12/29 03:29:48;;;;;;;;;;;;;;;-0.40;95.57;89871.13;1061487;56;20177;-82
2020/12/29 03:30:48;;;;;;;;;;;;;;;-0.38;95.97;89878.59;1059637;56;20635;-83
2020/12/29 03:31:48;;;;;;;;;;;;;;;-0.36;96.01;89879.59;1061842;56;20193;-83
2020/12/29 03:32:49;;;;;;;;;;;;;;;-0.42;96.39;89876.06;1063946;56;20623;-83
2020/12/29 03:33:49;;;;;;;;;;;;;;;-0.53;96.94;89886.94;1063814;56;20305;-83
2020/12/29 03:34:50;;;;;;;;;;;;;;;-0.53;96.88;89873.81;1063866;56;20161;-83
2020/12/29 03:35:50;;;;;;;;;;;;;;;-0.47;96.89;89879.25;1061599;56;20159;-82
2020/12/29 03:36:51;;;;;;;;;;;;;;;-0.45;96.00;89891.94;1061728;56;20259;-82
2020/12/29 03:37:51;;;;;;;;;;;;;;;-0.41;96.33;89892.53;1063818;56;20158;-83
2020/12/29 03:38:52;;;;;;;;;;;;;;;-0.49;96.70;89896.56;1063811;56;20188;-83
2020/12/29 03:39:54;;;;;;;;;;;;;;;-0.54;97.87;89897.84;1063802;56;20165;-83
2020/12/29 03:40:54;;;;;;;;;;;;;;;-0.48;97.00;89904.03;1061606;56;20146;-82
2020/12/29 03:41:55;;;;;;;;;;;;;;;-0.47;97.46;89908.09;1061816;56;20184;-84
2020/12/29 03:42:55;;;;;;;;;;;;;;;-0.45;97.52;89907.66;1062042;56;20158;-83
2020/12/29 03:43:56;;;;;;;;;;;;;;;-0.53;98.08;89918.41;1061937;56;20263;-83
2020/12/29 03:44:57;;;;;;;;;;;;;;;-0.53;98.50;89931.53;1066192;55;20157;-82
2020/12/29 03:45:58;;;;;;;;;;;;;;;-0.52;97.93;89929.62;1066439;55;20192;-82
2020/12/29 03:46:58;;;;;;;;;;;;;;;-0.52;97.94;89948.00;1064157;55;20637;-82
2020/12/29 03:47:58;;;;;;;;;;;;;;;-0.52;98.50;89945.38;1065965;55;20586;-83
2020/12/29 03:48:59;;;;;;;;;;;;;;;-0.58;98.81;89950.41;1066552;55;20153;-82
2020/12/29 03:50:00;;;;;;;;;;;;;;;-0.57;98.89;89948.50;1064275;55;20172;-82
2020/12/29 03:51:00;;;;;;;;;;;;;;;-0.52;99.05;89951.34;1061923;56;20189;-82
2020/12/29 03:52:01;;;;;;;;;;;;;;;-0.57;99.89;89938.78;1061975;56;20256;-81
2020/12/29 03:53:02;;;;;;;;;;;;;;;-0.56;99.75;89942.88;1061976;56;20158;-83
2020/12/29 03:54:02;;;;;;;;;;;;;;;-0.60;99.96;89936.28;1061977;56;20255;-83
2020/12/29 03:55:03;;;;;;;;;;;;;;;-0.61;100.00;89951.28;1064020;55;20162;-83
2020/12/29 03:56:03;;;;;;;;;;;;;;;-0.60;99.57;89939.63;1066324;55;20342;-83
2020/12/29 03:57:04;;;;;;;;;;;;;;;-0.56;99.73;89955.97;1063961;55;20162;-82
2020/12/29 03:58:04;;;;;;;;;;;;;;;-0.62;100.00;89957.66;1064131;55;20162;-82
2020/12/29 03:59:06;;;;;;;;;;;;;;;-0.59;99.34;89950.84;1061870;56;20162;-82
2020/12/29 04:00:07;;;;;;;;;;;;;;;-0.54;97.70;89955.53;1062053;56;20174;-82
2020/12/29 04:01:08;;;;;;;;;;;;;;;-0.60;98.33;89955.34;1064275;55;20627;-82
2020/12/29 04:02:09;;;;;;;;;;;;;;;-0.48;97.43;89953.09;1059928;56;20173;-82
2020/12/29 04:03:10;;;;;;;;;;;;;;;-0.46;97.45;89966.56;1062008;55;20263;-84
2020/12/29 04:04:11;;;;;;;;;;;;;;;-0.49;97.85;89965.50;1066533;55;20227;-84
2020/12/29 04:05:11;;;;;;;;;;;;;;;-0.62;97.34;89970.78;1064077;55;20176;-82
2020/12/29 04:06:12;;;;;;;;;;;;;;;-0.62;98.68;89980.53;1064098;55;20662;-82
2020/12/29 04:07:13;;;;;;;;;;;;;;;-0.56;98.77;89968.38;1064265;55;20673;-81
2020/12/29 04:08:13;;;;;;;;;;;;;;;-0.61;98.71;89971.53;1064054;55;20170;-84
2020/12/29 04:09:14;;;;;;;;;;;;;;;-0.60;98.46;89970.37;1059792;56;20146;-83
2020/12/29 04:10:14;;;;;;;;;;;;;;;-0.68;99.05;89977.72;1061916;56;20181;-83
2020/12/29 04:11:16;;;;;;;;;;;;;;;-0.67;99.04;89975.81;1066179;55;20262;-84
2020/12/29 04:12:16;;;;;;;;;;;;;;;-0.75;99.87;89967.44;1064007;55;20219;-82
2020/12/29 04:13:17;;;;;;;;;;;;;;;-0.77;100.00;89967.12;1064034;55;21092;-82
2020/12/29 04:14:17;;;;;;;;;;;;;;;-0.72;99.89;89976.34;1064136;55;20199;-82
2020/12/29 04:15:17;;;;;;;;;;;;;;;-0.77;99.73;89978.34;1064231;55;20716;-82
2020/12/29 04:16:21;;;;;;;;;;;;;;;-0.69;99.52;89978.16;1064046;55;20158;-83
2020/12/29 04:17:22;;;;;;;;;;;;;;;-0.62;98.91;89983.16;1064123;55;20225;-83
2020/12/29 04:18:23;;;;;;;;;;;;;;;-0.56;97.20;89984.09;1059664;56;20182;-83
2020/12/29 04:19:23;;;;;;;;;;;;;;;-0.58;97.39;89989.75;1061820;56;20181;-82
2020/12/29 04:20:24;;;;;;;;;;;;;;;-0.62;97.02;89983.16;1066251;55;20174;-82
2020/12/29 04:21:25;;;;;;;;;;;;;;;-0.60;96.89;89981.59;1066426;55;20153;-84
2020/12/29 04:22:28;;;;;;;;;;;;;;;-0.58;96.89;89976.63;1066478;55;20157;-82
2020/12/29 04:23:29;;;;;;;;;;;;;;;-0.58;97.12;89976.63;1063956;55;20213;-82
2020/12/29 04:24:30;;;;;;;;;;;;;;;-0.56;96.39;89990.06;1064157;55;20280;-83
2020/12/29 04:25:30;;;;;;;;;;;;;;;-0.51;95.90;89967.81;1061856;56;20169;-82
2020/12/29 04:26:33;;;;;;;;;;;;;;;-0.56;95.73;89976.97;1061715;56;21111;-82
2020/12/29 04:27:34;;;;;;;;;;;;;;;-0.54;95.18;89977.25;1063869;55;20162;-82
2020/12/29 04:28:35;;;;;;;;;;;;;;;-0.54;95.13;89968.66;1063947;55;20193;-82
2020/12/29 04:29:35;;;;;;;;;;;;;;;-0.43;94.15;89984.06;1063909;55;20209;-82
2020/12/29 04:30:36;;;;;;;;;;;;;;;-0.55;95.51;89969.81;1063769;55;20192;-82
2020/12/29 04:31:36;;;;;;;;;;;;;;;-0.54;95.49;89956.28;1065955;55;20193;-83
2020/12/29 04:32:39;;;;;;;;;;;;;;;-0.58;94.97;89966.16;1063731;55;20173;-83
2020/12/29 04:33:40;;;;;;;;;;;;;;;-0.60;96.03;89967.75;1059567;56;20188;-82
2020/12/29 04:34:41;;;;;;;;;;;;;;;-0.55;93.98;89967.94;1063634;55;20162;-82
2020/12/29 04:35:42;;;;;;;;;;;;;;;-0.58;94.95;89981.16;1063740;55;20166;-83
2020/12/29 04:36:44;;;;;;;;;;;;;;;-0.56;95.08;89971.00;1063946;55;20165;-82
2020/12/29 04:37:44;;;;;;;;;;;;;;;-0.58;94.58;89979.25;1066102;55;20142;-82
2020/12/29 04:38:44;;;;;;;;;;;;;;;-0.48;93.79;89982.72;1066143;55;20210;-84
2020/12/29 04:39:45;;;;;;;;;;;;;;;-0.48;94.89;89989.84;1066606;55;20180;-82
2020/12/29 04:40:45;;;;;;;;;;;;;;;-0.45;95.23;89994.25;1063890;55;20173;-82
2020/12/29 04:41:50;;;;;;;;;;;;;;;-0.53;95.26;90006.84;1064002;55;20696;-82
2020/12/29 04:42:52;;;;;;;;;;;;;;;-0.51;96.18;90001.94;1066157;55;20259;-84
2020/12/29 04:43:55;;;;;;;;;;;;;;;-0.47;95.59;90007.78;1066475;55;20157;-81
2020/12/29 04:44:56;;;;;;;;;;;;;;;-0.49;95.80;90017.22;1063716;55;20188;-83
2020/12/29 04:45:59;;;;;;;;;;;;;;;-0.54;96.07;90006.13;1063815;55;20158;-82
2020/12/29 04:47:00;;;;;;;;;;;;;;;-0.55;97.03;90011.78;1066069;55;20165;-82
2020/12/29 04:48:02;;;;;;;;;;;;;;;-0.50;96.13;90016.50;1065672;55;20165;-82
2020/12/29 04:49:03;;;;;;;;;;;;;;;-0.51;95.93;90017.66;1063851;55;20278;-83
2020/12/29 04:50:04;;;;;;;;;;;;;;;-0.49;96.39;90030.34;1063868;55;20267;-82
2020/12/29 04:51:08;;;;;;;;;;;;;;;-0.52;96.87;90014.31;1065937;55;20715;-82
2020/12/29 04:52:08;;;;;;;;;;;;;;;-0.48;96.89;90031.81;1068526;55;20163;-83
2020/12/29 04:53:13;;;;;;;;;;;;;;;-0.51;96.92;90010.53;1065928;55;20149;-82
2020/12/29 04:54:17;;;;;;;;;;;;;;;-0.48;96.06;90019.44;1064016;55;20262;-82
2020/12/29 04:55:26;;;;;;;;;;;;;;;-0.52;96.52;90021.44;1066205;55;20165;-83
2020/12/29 04:56:33;;;;;;;;;;;;;;;-0.56;97.14;90018.19;1065983;55;20218;-82
2020/12/29 04:57:33;;;;;;;;;;;;;;;-0.57;96.25;90022.72;1061842;56;20181;-84
2020/12/29 04:58:35;;;;;;;;;;;;;;;-0.48;96.55;90008.19;1064034;55;20154;-84
2020/12/29 04:59:36;;;;;;;;;;;;;;;-0.47;95.39;90020.19;1068127;55;20164;-82
2020/12/29 05:00:36;;;;;;;;;;;;;;;-0.45;94.71;90023.84;1063813;55;20158;-83
2020/12/29 05:01:38;;;;;;;;;;;;;;;-0.46;95.15;90026.88;1061740;55;20178;-82
2020/12/29 05:02:38;;;;;;;;;;;;;;;-0.50;96.28;90027.00;1066224;55;20189;-82
2020/12/29 05:03:42;;;;;;;;;;;;;;;-0.51;96.09;90036.03;1066039;55;20181;-84
2020/12/29 05:04:43;;;;;;;;;;;;;;;-0.53;95.45;90030.44;1063926;55;20161;-82
2020/12/29 05:05:43;;;;;;;;;;;;;;;-0.48;95.87;90031.81;1061741;56;20170;-85
2020/12/29 05:06:44;;;;;;;;;;;;;;;-0.47;94.86;90020.91;1059522;56;20652;-82
2020/12/29 05:07:46;;;;;;;;;;;;;;;-0.42;94.54;90035.38;1061841;55;20161;-81
2020/12/29 05:08:47;;;;;;;;;;;;;;;-0.46;96.01;90053.13;1064030;55;20177;-81
2020/12/29 05:09:48;;;;;;;;;;;;;;;-0.47;95.65;90047.16;1066096;55;20165;-81
2020/12/29 05:10:49;;;;;;;;;;;;;;;-0.52;96.43;90037.91;1066200;55;20172;-82
2020/12/29 05:11:50;;;;;;;;;;;;;;;-0.40;95.31;90048.81;1063813;55;20169;-82
2020/12/29 05:12:51;;;;;;;;;;;;;;;-0.38;94.80;90055.09;1066033;55;20610;-82
2020/12/29 05:13:52;;;;;;;;;;;;;;;-0.44;95.92;90071.78;1063819;55;20212;-84
2020/12/29 05:14:53;;;;;;;;;;;;;;;-0.47;96.80;90060.25;1063721;55;20166;-83